Terminal Aerodrome Forecast
Issued by NWS Pueblo, CO

Home | Current Version | Previous Version | Text Only | Print | Product List | Glossary On
Versions: 1 2 3 4 5 6 7 8 9 10 11 12 13 14 15 16 17 18
000
FTUS45 KPUB 281121
TAFPUB
TAF
KPUB 281121Z 2812/0112 02007KT P6SM SCT120 BKN200
     FM281300 VRB06KT P6SM SCT120 BKN200
     FM281800 13010KT P6SM VCSH SCT050 BKN100
     FM282300 30018G28KT P6SM SCT100 BKN150
     FM010300 33012KT P6SM FEW150 SCT250=

USA.gov is the U.S. government's official web portal to all federal, state and local government web resources and services.